createdAt,value
2022-10-18T00:00:24.600Z,74.95
2022-10-18T00:02:52.079Z,75.06
2022-10-18T00:05:19.625Z,75.04
2022-10-18T00:07:47.098Z,75.51
2022-10-18T00:10:14.690Z,75.07
2022-10-18T00:12:42.222Z,75.66
2022-10-18T00:15:11.766Z,75.82
2022-10-18T00:17:40.771Z,75.76
2022-10-18T00:20:09.189Z,75.36
2022-10-18T00:22:37.973Z,75.43
2022-10-18T00:25:07.065Z,75.27
2022-10-18T00:27:35.231Z,74.64
2022-10-18T00:30:03.075Z,74.91
2022-10-18T00:32:30.742Z,74.76
2022-10-18T00:34:59.760Z,74.97
2022-10-18T00:37:27.266Z,75.09
2022-10-18T00:39:54.808Z,75.38
2022-10-18T00:42:33.455Z,74.87
2022-10-18T00:45:16.792Z,74.87
2022-10-18T00:47:46.801Z,75.26
2022-10-18T00:50:15.690Z,75.21
2022-10-18T00:52:46.761Z,75.09
2022-10-18T00:55:14.786Z,74.83
2022-10-18T00:57:44.208Z,75.08
2022-10-18T01:00:13.632Z,75.26
2022-10-18T01:02:44.537Z,74.66
2022-10-18T01:05:13.524Z,74.94
2022-10-18T01:08:18.500Z,75.04
2022-10-18T01:10:52.489Z,75.27
2022-10-18T01:13:39.093Z,75.04
2022-10-18T01:16:18.778Z,75.08
2022-10-18T01:18:52.305Z,74.87
2022-10-18T01:21:30.052Z,74.60
2022-10-18T01:24:40.114Z,75.29
2022-10-18T01:27:26.915Z,75.07
2022-10-18T01:30:11.491Z,75.08
2022-10-18T01:32:43.964Z,74.76
2022-10-18T01:35:18.195Z,74.73
2022-10-18T01:37:48.420Z,75.20
2022-10-18T01:40:20.340Z,74.54
2022-10-18T01:42:49.948Z,75.18
2022-10-18T01:45:19.940Z,75.25
2022-10-18T01:47:49.410Z,75.49
2022-10-18T01:50:16.885Z,75.28
2022-10-18T01:52:50.483Z,75.28
2022-10-18T01:55:19.312Z,75.00
2022-10-18T01:57:57.654Z,74.97
2022-10-18T02:00:32.485Z,74.70
2022-10-18T02:03:07.759Z,74.98
2022-10-18T02:05:45.252Z,75.31
2022-10-18T02:08:23.772Z,74.96
2022-10-18T02:10:56.718Z,74.84
2022-10-18T02:13:28.172Z,74.96
2022-10-18T02:16:00.079Z,75.18
2022-10-18T02:18:34.789Z,74.88
2022-10-18T02:21:04.614Z,75.07
2022-10-18T02:23:33.023Z,74.85
2022-10-18T02:26:00.695Z,75.09
2022-10-18T02:28:28.530Z,75.81
2022-10-18T02:31:04.816Z,75.45
2022-10-18T02:33:40.392Z,75.30
2022-10-18T02:36:16.546Z,75.35
2022-10-18T02:38:46.922Z,75.62
2022-10-18T02:41:23.535Z,75.37
2022-10-18T02:43:51.079Z,76.03
2022-10-18T02:46:18.809Z,76.11
2022-10-18T02:48:47.668Z,75.84
2022-10-18T02:51:15.228Z,75.51
2022-10-18T02:53:42.762Z,76.10
2022-10-18T02:56:10.503Z,75.63
2022-10-18T02:58:38.010Z,75.54
2022-10-18T03:01:05.724Z,75.56
2022-10-18T03:03:33.281Z,75.66
2022-10-18T03:06:02.159Z,76.02
2022-10-18T03:08:29.656Z,76.31
2022-10-18T03:10:57.207Z,75.73
2022-10-18T03:13:24.790Z,75.64
2022-10-18T03:15:52.299Z,75.67
2022-10-18T03:18:19.802Z,75.69
2022-10-18T03:20:47.549Z,75.71
2022-10-18T03:23:16.409Z,75.94
2022-10-18T03:25:45.705Z,75.69
2022-10-18T03:28:14.150Z,76.04
2022-10-18T03:30:41.686Z,76.13
2022-10-18T03:33:09.156Z,76.06
2022-10-18T03:35:36.690Z,76.57
2022-10-18T03:38:04.312Z,76.71
2022-10-18T03:40:33.211Z,76.98
2022-10-18T03:43:00.694Z,76.71
2022-10-18T03:45:31.203Z,76.96
2022-10-18T03:47:59.217Z,76.65
2022-10-18T03:50:26.717Z,76.32
2022-10-18T03:52:54.612Z,76.45
2022-10-18T03:55:22.418Z,76.38
2022-10-18T03:57:51.232Z,76.33
2022-10-18T04:00:18.786Z,76.72
2022-10-18T04:02:46.344Z,76.52
2022-10-18T04:05:14.101Z,76.76
2022-10-18T04:07:41.730Z,76.76
2022-10-18T04:10:09.598Z,76.99
2022-10-18T04:12:37.162Z,76.81
2022-10-18T04:15:07.082Z,76.62
2022-10-18T04:17:35.143Z,76.58
2022-10-18T04:20:02.985Z,77.08
2022-10-18T04:22:30.656Z,76.68
2022-10-18T04:24:58.114Z,76.91
2022-10-18T04:27:25.664Z,76.81
2022-10-18T04:29:55.336Z,76.63
2022-10-18T04:32:24.267Z,76.08
2022-10-18T04:34:51.738Z,76.59
2022-10-18T04:37:19.391Z,76.66
2022-10-18T04:39:51.213Z,76.88
2022-10-18T04:42:24.756Z,76.61
2022-10-18T04:44:52.306Z,76.76
2022-10-18T04:47:21.189Z,76.38
2022-10-18T04:49:50.047Z,76.63
2022-10-18T04:52:17.635Z,76.29
2022-10-18T04:54:45.154Z,76.53
2022-10-18T04:57:12.681Z,76.27
2022-10-18T04:59:40.179Z,76.53
2022-10-18T05:02:07.728Z,76.50
2022-10-18T05:04:35.296Z,76.98
2022-10-18T05:07:05.853Z,77.16
2022-10-18T05:09:33.402Z,76.61
2022-10-18T05:12:00.869Z,76.80
2022-10-18T05:14:28.330Z,76.56
2022-10-18T05:16:55.791Z,76.76
2022-10-18T05:19:23.270Z,76.48
2022-10-18T05:21:50.788Z,76.38
2022-10-18T05:24:21.094Z,76.48
2022-10-18T05:26:50.477Z,76.75
2022-10-18T05:29:18.062Z,76.28
2022-10-18T05:31:45.669Z,76.64
2022-10-18T05:34:13.195Z,76.70
2022-10-18T05:36:40.884Z,76.64
2022-10-18T05:39:08.363Z,76.78
2022-10-18T05:41:37.339Z,76.76
2022-10-18T05:44:05.667Z,76.77
2022-10-18T05:46:33.496Z,76.67
2022-10-18T05:49:00.993Z,76.38
2022-10-18T05:51:28.510Z,77.49
2022-10-18T05:53:55.987Z,77.32
2022-10-18T05:56:23.462Z,76.87
2022-10-18T05:58:53.148Z,76.88
2022-10-18T06:01:20.774Z,77.16
2022-10-18T06:03:48.464Z,77.26
2022-10-18T06:06:16.762Z,77.16
2022-10-18T06:08:45.012Z,77.00
2022-10-18T06:11:14.950Z,77.25
2022-10-18T06:13:42.964Z,77.28
2022-10-18T06:16:12.984Z,77.35
2022-10-18T06:18:40.782Z,77.30
2022-10-18T06:21:09.155Z,76.82
2022-10-18T06:23:36.771Z,77.32
2022-10-18T06:26:06.428Z,77.50
2022-10-18T06:28:36.248Z,77.10
2022-10-18T06:31:04.911Z,77.32
2022-10-18T06:33:34.793Z,76.89
2022-10-18T06:36:04.199Z,77.46
2022-10-18T06:38:32.194Z,77.27
2022-10-18T06:41:00.227Z,77.10
2022-10-18T06:43:28.264Z,77.28
2022-10-18T06:45:56.126Z,77.26
2022-10-18T06:48:24.424Z,77.73
2022-10-18T06:50:54.802Z,77.15
2022-10-18T06:53:22.451Z,77.02
2022-10-18T06:55:49.984Z,77.05
2022-10-18T06:58:17.700Z,76.66
2022-10-18T07:00:46.907Z,76.72
2022-10-18T07:03:14.433Z,77.12
2022-10-18T07:05:41.946Z,77.11
2022-10-18T07:08:10.844Z,77.45
2022-10-18T07:10:38.379Z,77.44
2022-10-18T07:13:30.814Z,77.57
2022-10-18T07:16:01.995Z,77.50
2022-10-18T07:18:29.457Z,77.42
2022-10-18T07:20:56.985Z,77.00
2022-10-18T07:23:25.811Z,77.32
2022-10-18T07:25:53.284Z,77.42
2022-10-18T07:28:20.837Z,77.43
2022-10-18T07:30:48.314Z,77.44
2022-10-18T07:33:15.754Z,77.45
2022-10-18T07:35:43.252Z,77.76
2022-10-18T07:38:10.783Z,77.14
2022-10-18T07:40:39.697Z,77.32
2022-10-18T07:43:11.994Z,77.56
2022-10-18T07:45:39.678Z,77.56
2022-10-18T07:48:07.706Z,77.13
2022-10-18T07:50:35.224Z,77.28
2022-10-18T07:53:02.922Z,77.88
2022-10-18T07:55:30.382Z,77.62
2022-10-18T07:58:01.126Z,77.66
2022-10-18T08:00:28.760Z,77.67
2022-10-18T08:02:57.334Z,77.46
2022-10-18T08:05:25.242Z,77.58
2022-10-18T08:07:52.729Z,76.93
2022-10-18T08:10:20.361Z,76.85
2022-10-18T08:12:47.833Z,76.87
2022-10-18T08:15:16.914Z,76.92
2022-10-18T08:17:44.664Z,76.76
2022-10-18T08:20:29.498Z,76.70
2022-10-18T08:23:00.452Z,76.42
2022-10-18T08:25:28.956Z,76.41
2022-10-18T08:27:56.598Z,76.44
2022-10-18T08:30:25.453Z,76.38
2022-10-18T08:32:53.142Z,76.16
2022-10-18T08:35:20.697Z,76.14
2022-10-18T08:37:48.437Z,76.32
2022-10-18T08:40:16.691Z,76.14
2022-10-18T08:43:01.869Z,76.43
2022-10-18T08:45:41.838Z,76.62
2022-10-18T08:48:21.671Z,76.99
2022-10-18T08:50:50.614Z,76.83
2022-10-18T08:53:25.402Z,76.65
2022-10-18T08:55:58.422Z,76.28
2022-10-18T08:58:27.623Z,76.40
2022-10-18T09:01:07.193Z,76.30
2022-10-18T09:03:52.676Z,76.98
2022-10-18T09:06:26.520Z,76.64
2022-10-18T09:09:18.373Z,76.76
2022-10-18T09:11:59.574Z,76.81
2022-10-18T09:14:57.575Z,76.65
2022-10-18T09:17:34.014Z,76.43
2022-10-18T09:20:12.959Z,76.47
2022-10-18T09:22:51.823Z,76.71
2022-10-18T09:25:22.161Z,76.32
2022-10-18T09:27:58.065Z,76.17
2022-10-18T09:30:40.456Z,75.90
2022-10-18T09:33:27.523Z,76.39
2022-10-18T09:35:58.783Z,75.84
2022-10-18T09:38:31.760Z,75.92
2022-10-18T09:41:04.308Z,76.00
2022-10-18T09:43:46.842Z,76.15
2022-10-18T09:46:15.535Z,76.23
2022-10-18T09:48:50.410Z,75.53
2022-10-18T09:51:22.161Z,75.72
2022-10-18T09:54:03.638Z,75.96
2022-10-18T09:56:39.313Z,75.52
2022-10-18T09:59:33.253Z,75.46
2022-10-18T10:02:00.805Z,75.45
2022-10-18T10:04:29.822Z,74.80
2022-10-18T10:07:00.085Z,74.88
2022-10-18T10:09:29.517Z,74.43
2022-10-18T10:11:57.602Z,74.40
2022-10-18T10:14:27.386Z,74.07
2022-10-18T10:16:57.661Z,74.13
2022-10-18T10:19:32.635Z,73.51
2022-10-18T10:22:02.828Z,73.00
2022-10-18T10:24:47.558Z,72.44
2022-10-18T10:27:20.704Z,73.26
2022-10-18T10:30:02.788Z,72.90
2022-10-18T10:32:49.386Z,73.15
2022-10-18T10:35:52.532Z,72.86
2022-10-18T10:38:25.250Z,73.21
2022-10-18T10:40:53.201Z,72.98
2022-10-18T10:43:40.541Z,71.84
2022-10-18T10:46:11.056Z,71.11
2022-10-18T10:48:48.484Z,71.27
2022-10-18T10:51:28.768Z,71.02
2022-10-18T10:54:01.371Z,70.76
2022-10-18T10:56:30.886Z,70.74
2022-10-18T10:59:07.909Z,71.01
2022-10-18T11:01:36.405Z,71.02
2022-10-18T11:04:24.213Z,70.51
2022-10-18T11:07:01.815Z,70.42
2022-10-18T11:09:49.751Z,69.69
2022-10-18T11:12:33.299Z,70.70
2022-10-18T11:15:12.781Z,70.56
2022-10-18T11:17:44.937Z,70.42
2022-10-18T11:20:24.589Z,70.12
2022-10-18T11:23:01.125Z,69.58
2022-10-18T11:26:00.952Z,69.87
2022-10-18T11:28:46.565Z,69.47
2022-10-18T11:31:21.242Z,68.27
2022-10-18T11:34:21.420Z,69.00
2022-10-18T11:37:09.670Z,68.80
2022-10-18T11:39:55.286Z,68.36
2022-10-18T11:42:32.911Z,68.06
2022-10-18T11:45:16.287Z,67.40
2022-10-18T11:47:53.572Z,66.86
2022-10-18T11:50:30.285Z,67.18
2022-10-18T11:53:05.544Z,67.04
2022-10-18T11:55:56.624Z,66.65
2022-10-18T11:58:37.651Z,66.53
2022-10-18T12:01:16.913Z,66.48
2022-10-18T12:04:03.577Z,66.48
2022-10-18T12:06:34.998Z,66.61
2022-10-18T12:09:05.170Z,66.71
2022-10-18T12:11:41.061Z,67.20
2022-10-18T12:14:23.609Z,66.36
2022-10-18T12:16:58.402Z,65.74
2022-10-18T12:19:36.207Z,66.17
2022-10-18T12:22:15.265Z,65.51
2022-10-18T12:24:43.179Z,65.73
2022-10-18T12:27:15.395Z,65.31
2022-10-18T12:29:51.076Z,64.97
2022-10-18T12:32:22.656Z,65.24
2022-10-18T12:34:53.524Z,64.74
2022-10-18T12:37:51.664Z,63.78
2022-10-18T12:40:23.510Z,64.15
2022-10-18T12:42:53.992Z,63.72
2022-10-18T12:45:27.449Z,63.47
2022-10-18T12:47:55.916Z,63.20
2022-10-18T12:50:36.077Z,62.70
2022-10-18T12:53:07.464Z,62.94
2022-10-18T12:55:37.814Z,62.68
2022-10-18T12:58:24.157Z,62.05
2022-10-18T13:01:03.088Z,60.20
2022-10-18T13:03:40.931Z,61.18
2022-10-18T13:06:08.599Z,61.14
2022-10-18T13:08:42.339Z,59.40
2022-10-18T13:11:30.312Z,61.08
2022-10-18T13:14:27.091Z,59.00
2022-10-18T13:17:00.288Z,59.79
2022-10-18T13:19:36.096Z,59.81
2022-10-18T13:22:21.921Z,59.32
2022-10-18T13:25:02.091Z,58.62
2022-10-18T13:27:39.319Z,57.93
2022-10-18T13:30:26.714Z,59.19
2022-10-18T13:33:00.909Z,59.14
2022-10-18T13:35:49.608Z,57.14
2022-10-18T13:38:41.031Z,57.53
2022-10-18T13:41:10.774Z,58.87
2022-10-18T13:44:12.803Z,58.31
2022-10-18T13:47:18.575Z,56.81
2022-10-18T13:50:02.849Z,56.83
2022-10-18T13:52:47.808Z,56.76
2022-10-18T13:55:33.870Z,57.12
2022-10-18T13:58:12.148Z,56.91
2022-10-18T14:00:54.530Z,57.11
2022-10-18T14:03:57.126Z,56.42
2022-10-18T14:06:33.621Z,55.99
2022-10-18T14:09:13.745Z,55.93
2022-10-18T14:11:54.851Z,56.52
2022-10-18T14:14:29.913Z,56.62
2022-10-18T14:17:04.405Z,56.73
2022-10-18T14:19:37.802Z,54.95
2022-10-18T14:22:12.365Z,54.32
2022-10-18T14:24:44.926Z,55.26
2022-10-18T14:27:19.722Z,55.84
2022-10-18T14:29:48.107Z,54.45
2022-10-18T14:32:25.361Z,54.67
2022-10-18T14:34:55.766Z,55.12
2022-10-18T14:37:34.442Z,55.93
2022-10-18T14:40:03.112Z,55.43
2022-10-18T14:42:30.915Z,54.03
2022-10-18T14:44:58.959Z,54.13
2022-10-18T14:47:27.864Z,53.91
2022-10-18T14:49:57.654Z,54.55
2022-10-18T14:52:32.917Z,55.03
2022-10-18T14:55:04.597Z,53.13
2022-10-18T14:57:35.575Z,53.81
2022-10-18T15:00:06.523Z,55.00
2022-10-18T15:02:38.363Z,54.71
2022-10-18T15:05:09.849Z,54.56
2022-10-18T15:07:37.762Z,55.21
2022-10-18T15:10:09.293Z,53.10
2022-10-18T15:13:04.330Z,54.14
2022-10-18T15:15:29.858Z,53.05
2022-10-18T15:17:58.422Z,53.80
2022-10-18T15:20:28.351Z,53.09
2022-10-18T15:23:23.378Z,54.15
2022-10-18T15:25:53.552Z,53.72
2022-10-18T15:28:28.955Z,54.18
2022-10-18T15:30:58.615Z,54.74
2022-10-18T15:33:27.775Z,54.29
2022-10-18T15:35:55.736Z,54.54
2022-10-18T15:38:28.030Z,53.71
2022-10-18T15:40:56.908Z,55.58
2022-10-18T15:43:40.504Z,55.52
2022-10-18T15:46:28.019Z,54.68
2022-10-18T15:49:20.165Z,55.50
2022-10-18T15:51:49.296Z,56.03
2022-10-18T15:54:19.718Z,55.61
2022-10-18T15:56:47.353Z,56.52
2022-10-18T15:59:23.934Z,57.21
2022-10-18T16:01:51.641Z,57.32
2022-10-18T16:04:23.909Z,57.19
2022-10-18T16:06:51.444Z,58.15
2022-10-18T16:09:20.979Z,57.76
2022-10-18T16:11:55.612Z,57.50
2022-10-18T16:14:24.061Z,58.23
2022-10-18T16:17:02.844Z,56.90
2022-10-18T16:19:32.934Z,57.13
2022-10-18T16:22:06.408Z,57.92
2022-10-18T16:24:34.508Z,57.09
2022-10-18T16:27:02.000Z,57.97
2022-10-18T16:29:32.003Z,58.04
2022-10-18T16:31:59.850Z,58.43
2022-10-18T16:34:27.882Z,58.58
2022-10-18T16:36:56.746Z,58.65
2022-10-18T16:39:25.086Z,59.01
2022-10-18T16:41:52.701Z,59.51
2022-10-18T16:44:20.194Z,59.49
2022-10-18T16:46:51.072Z,60.51
2022-10-18T16:49:24.125Z,60.88
2022-10-18T16:51:52.430Z,62.04
2022-10-18T16:54:21.462Z,61.58
2022-10-18T16:56:50.086Z,61.84
2022-10-18T16:59:24.012Z,62.07
2022-10-18T17:01:51.555Z,61.86
2022-10-18T17:04:19.055Z,62.70
2022-10-18T17:06:47.472Z,62.46
2022-10-18T17:09:16.141Z,63.10
2022-10-18T17:11:45.018Z,62.92
2022-10-18T17:14:12.498Z,62.93
2022-10-18T17:16:40.052Z,63.18
2022-10-18T17:19:11.270Z,63.20
2022-10-18T17:21:38.805Z,62.63
2022-10-18T17:24:06.417Z,62.80
2022-10-18T17:26:34.946Z,62.71
2022-10-18T17:29:06.265Z,62.98
2022-10-18T17:31:35.424Z,63.33
2022-10-18T17:34:02.939Z,63.28
2022-10-18T17:36:30.882Z,63.43
2022-10-18T17:38:58.805Z,63.30
2022-10-18T17:41:26.703Z,63.67
2022-10-18T17:43:54.570Z,62.87
2022-10-18T17:46:23.560Z,63.14
2022-10-18T17:48:51.077Z,63.49
2022-10-18T17:51:18.557Z,63.06
2022-10-18T17:53:46.548Z,62.98
2022-10-18T17:56:14.852Z,63.50
2022-10-18T17:58:43.466Z,63.25
2022-10-18T18:01:12.350Z,63.24
2022-10-18T18:03:42.012Z,63.50
2022-10-18T18:06:16.893Z,63.68
2022-10-18T18:08:44.710Z,63.53
2022-10-18T18:11:12.486Z,63.92
2022-10-18T18:13:40.005Z,64.10
2022-10-18T18:16:12.872Z,64.10
2022-10-18T18:18:41.909Z,64.25
2022-10-18T18:21:09.717Z,64.20
2022-10-18T18:23:37.310Z,64.71
2022-10-18T18:26:04.830Z,64.55
2022-10-18T18:28:32.367Z,64.72
2022-10-18T18:30:59.874Z,64.98
2022-10-18T18:33:27.333Z,64.62
2022-10-18T18:35:57.304Z,64.68
2022-10-18T18:38:25.474Z,64.69
2022-10-18T18:41:03.915Z,64.92
2022-10-18T18:43:31.418Z,64.69
2022-10-18T18:45:58.895Z,64.96
2022-10-18T18:48:27.047Z,64.89
2022-10-18T18:50:55.938Z,64.99
2022-10-18T18:53:27.218Z,64.77
2022-10-18T18:56:02.542Z,64.94
2022-10-18T18:58:30.027Z,64.80
2022-10-18T19:00:57.483Z,65.46
2022-10-18T19:03:24.964Z,65.63
2022-10-18T19:05:52.430Z,65.45
2022-10-18T19:08:21.228Z,65.11
2022-10-18T19:10:49.456Z,65.35
2022-10-18T19:13:17.073Z,64.76
2022-10-18T19:15:44.603Z,65.05
2022-10-18T19:18:12.062Z,64.70
2022-10-18T19:20:39.540Z,64.65
2022-10-18T19:23:07.019Z,64.48
2022-10-18T19:25:35.852Z,64.58
2022-10-18T19:28:03.351Z,65.41
2022-10-18T19:30:30.827Z,65.24
2022-10-18T19:33:04.061Z,64.86
2022-10-18T19:35:31.540Z,64.78
2022-10-18T19:37:59.023Z,64.74
2022-10-18T19:40:26.522Z,64.93
2022-10-18T19:42:55.285Z,64.89
2022-10-18T19:45:22.769Z,64.79
2022-10-18T19:47:50.252Z,65.19
2022-10-18T19:50:18.030Z,65.70
2022-10-18T19:52:45.497Z,65.35
2022-10-18T19:55:12.970Z,65.42
2022-10-18T19:57:40.416Z,65.63
2022-10-18T20:00:13.194Z,65.73
2022-10-18T20:02:42.464Z,65.18
2022-10-18T20:05:10.820Z,65.06
2022-10-18T20:07:41.082Z,65.20
2022-10-18T20:10:09.448Z,65.32
2022-10-18T20:12:36.927Z,65.01
2022-10-18T20:15:04.528Z,65.45
2022-10-18T20:17:33.652Z,65.58
2022-10-18T20:20:01.186Z,65.27
2022-10-18T20:22:28.651Z,64.61
2022-10-18T20:24:57.718Z,65.25
2022-10-18T20:27:25.259Z,65.17
2022-10-18T20:29:52.762Z,65.45
2022-10-18T20:32:20.224Z,65.18
2022-10-18T20:34:49.074Z,65.52
2022-10-18T20:37:19.460Z,65.00
2022-10-18T20:39:46.974Z,65.29
2022-10-18T20:42:14.416Z,65.76
2022-10-18T20:44:43.369Z,65.70
2022-10-18T20:47:11.029Z,65.81
2022-10-18T20:49:38.531Z,65.64
2022-10-18T20:52:07.321Z,65.88
2022-10-18T20:54:34.815Z,65.88
2022-10-18T20:57:02.252Z,65.46
2022-10-18T20:59:29.996Z,65.78
2022-10-18T21:01:57.479Z,65.48
2022-10-18T21:04:24.952Z,65.96
2022-10-18T21:06:52.436Z,66.02
2022-10-18T21:09:21.382Z,65.37
2022-10-18T21:11:50.927Z,65.93
2022-10-18T21:14:19.903Z,65.65
2022-10-18T21:16:48.210Z,65.38
2022-10-18T21:19:17.833Z,65.60
2022-10-18T21:21:47.208Z,65.22
2022-10-18T21:24:15.204Z,64.83
2022-10-18T21:26:44.594Z,64.78
2022-10-18T21:29:15.982Z,65.00
2022-10-18T21:31:46.318Z,64.86
2022-10-18T21:34:16.988Z,64.99
2022-10-18T21:36:45.845Z,64.47
2022-10-18T21:39:15.486Z,64.27
2022-10-18T21:41:44.908Z,64.36
2022-10-18T21:44:13.152Z,65.11
2022-10-18T21:46:42.855Z,64.46
2022-10-18T21:49:11.096Z,65.16
2022-10-18T21:51:39.303Z,64.40
2022-10-18T21:54:09.133Z,65.31
2022-10-18T21:56:36.691Z,64.26
2022-10-18T21:59:07.755Z,64.95
2022-10-18T22:01:36.911Z,64.83
2022-10-18T22:04:07.065Z,64.49
2022-10-18T22:06:36.489Z,65.57
2022-10-18T22:09:08.282Z,65.89
2022-10-18T22:11:39.612Z,64.92
2022-10-18T22:14:08.636Z,65.83
2022-10-18T22:16:36.161Z,65.54
2022-10-18T22:19:05.611Z,65.78
2022-10-18T22:21:34.045Z,66.29
2022-10-18T22:24:04.111Z,66.21
2022-10-18T22:26:34.025Z,66.62
2022-10-18T22:29:04.226Z,66.24
2022-10-18T22:31:35.507Z,66.11
2022-10-18T22:34:04.791Z,66.19
2022-10-18T22:36:33.058Z,66.12
2022-10-18T22:39:00.812Z,66.39
2022-10-18T22:41:28.312Z,66.49
2022-10-18T22:43:58.407Z,66.40
2022-10-18T22:46:28.940Z,66.00
2022-10-18T22:48:57.760Z,65.20
2022-10-18T22:51:25.376Z,65.21
2022-10-18T22:53:52.884Z,65.54
2022-10-18T22:56:22.386Z,65.48
2022-10-18T22:58:50.429Z,65.80
2022-10-18T23:01:19.709Z,65.08
2022-10-18T23:03:47.534Z,65.29
2022-10-18T23:06:22.415Z,65.18
2022-10-18T23:08:50.612Z,65.48
2022-10-18T23:11:19.064Z,64.50
2022-10-18T23:13:46.682Z,65.25
2022-10-18T23:16:14.881Z,65.34
2022-10-18T23:18:42.708Z,65.33
2022-10-18T23:21:13.380Z,65.30
2022-10-18T23:23:43.482Z,65.27
2022-10-18T23:26:13.524Z,65.05
2022-10-18T23:28:43.375Z,64.96
2022-10-18T23:31:13.454Z,65.08
2022-10-18T23:33:41.964Z,66.10
2022-10-18T23:36:09.943Z,65.71
2022-10-18T23:38:39.093Z,66.22
2022-10-18T23:41:09.571Z,65.46
2022-10-18T23:43:37.466Z,66.00
2022-10-18T23:46:05.539Z,65.44
2022-10-18T23:48:34.085Z,65.12
2022-10-18T23:51:01.776Z,65.18
2022-10-18T23:53:29.672Z,65.33
2022-10-18T23:55:59.199Z,65.12
2022-10-18T23:58:29.513Z,65.43
